sensor_id;sensor_type;location;lat;lon;timestamp;pressure;altitude;pressure_sealevel;temperature;humidity
57644;BME280;43474;46.510;6.686;2023-04-01T00:00:06;95943.75;;;6.86;100.00
57644;BME280;43474;46.510;6.686;2023-04-01T00:02:52;95940.28;;;6.86;100.00
57644;BME280;43474;46.510;6.686;2023-04-01T00:05:17;95949.72;;;6.93;100.00
57644;BME280;43474;46.510;6.686;2023-04-01T00:07:43;95943.06;;;6.91;100.00
57644;BME280;43474;46.510;6.686;2023-04-01T00:10:10;95939.56;;;7.09;100.00
57644;BME280;43474;46.510;6.686;2023-04-01T00:12:38;95941.50;;;7.02;100.00
57644;BME280;43474;46.510;6.686;2023-04-01T00:15:05;95931.97;;;7.00;100.00
57644;BME280;43474;46.510;6.686;2023-04-01T00:17:31;95920.88;;;6.98;100.00
57644;BME280;43474;46.510;6.686;2023-04-01T00:19:57;95922.81;;;6.91;100.00
57644;BME280;43474;46.510;6.686;2023-04-01T00:22:26;95931.53;;;6.92;100.00
57644;BME280;43474;46.510;6.686;2023-04-01T00:24:52;95923.03;;;6.90;100.00
57644;BME280;43474;46.510;6.686;2023-04-01T00:27:18;95939.06;;;7.00;100.00
57644;BME280;43474;46.510;6.686;2023-04-01T00:29:45;95940.38;;;7.09;100.00
57644;BME280;43474;46.510;6.686;2023-04-01T00:32:12;95939.94;;;7.12;100.00
57644;BME280;43474;46.510;6.686;2023-04-01T00:34:37;95929.69;;;7.04;100.00
57644;BME280;43474;46.510;6.686;2023-04-01T00:37:03;95939.31;;;7.10;100.00
57644;BME280;43474;46.510;6.686;2023-04-01T00:39:30;95945.53;;;7.16;100.00
57644;BME280;43474;46.510;6.686;2023-04-01T00:41:57;95948.81;;;6.99;100.00
57644;BME280;43474;46.510;6.686;2023-04-01T00:44:28;95965.47;;;7.12;100.00
57644;BME280;43474;46.510;6.686;2023-04-01T00:46:54;95947.34;;;7.04;100.00
57644;BME280;43474;46.510;6.686;2023-04-01T00:49:22;95966.75;;;6.91;100.00
57644;BME280;43474;46.510;6.686;2023-04-01T00:51:52;95970.44;;;6.90;100.00
57644;BME280;43474;46.510;6.686;2023-04-01T00:54:19;95951.84;;;6.73;100.00
57644;BME280;43474;46.510;6.686;2023-04-01T00:57:01;95947.91;;;6.64;100.00
57644;BME280;43474;46.510;6.686;2023-04-01T00:59:29;95954.47;;;6.73;100.00
57644;BME280;43474;46.510;6.686;2023-04-01T01:01:56;95943.94;;;6.73;100.00
57644;BME280;43474;46.510;6.686;2023-04-01T01:04:27;95942.22;;;6.79;100.00
57644;BME280;43474;46.510;6.686;2023-04-01T01:07:29;95926.97;;;6.69;100.00
57644;BME280;43474;46.510;6.686;2023-04-01T01:10:18;95933.97;;;6.75;100.00
57644;BME280;43474;46.510;6.686;2023-04-01T01:12:45;95940.56;;;6.66;100.00
57644;BME280;43474;46.510;6.686;2023-04-01T01:15:21;95933.06;;;6.51;100.00
57644;BME280;43474;46.510;6.686;2023-04-01T01:17:58;95935.41;;;6.59;100.00
57644;BME280;43474;46.510;6.686;2023-04-01T01:21:04;95946.50;;;6.61;100.00
57644;BME280;43474;46.510;6.686;2023-04-01T01:24:04;95933.53;;;6.48;100.00
57644;BME280;43474;46.510;6.686;2023-04-01T01:31:43;95935.78;;;6.63;100.00
57644;BME280;43474;46.510;6.686;2023-04-01T01:34:30;95945.38;;;6.57;100.00
57644;BME280;43474;46.510;6.686;2023-04-01T01:37:01;95936.53;;;6.52;100.00
57644;BME280;43474;46.510;6.686;2023-04-01T01:39:31;95953.06;;;6.70;100.00
57644;BME280;43474;46.510;6.686;2023-04-01T01:42:02;95959.84;;;6.66;100.00
57644;BME280;43474;46.510;6.686;2023-04-01T01:44:30;95962.41;;;6.55;100.00
57644;BME280;43474;46.510;6.686;2023-04-01T01:46:57;95964.66;;;6.51;100.00
57644;BME280;43474;46.510;6.686;2023-04-01T01:49:24;95941.72;;;6.40;100.00
57644;BME280;43474;46.510;6.686;2023-04-01T01:51:50;95950.34;;;6.47;100.00
57644;BME280;43474;46.510;6.686;2023-04-01T01:54:17;95938.00;;;6.47;100.00
57644;BME280;43474;46.510;6.686;2023-04-01T01:56:46;95926.97;;;6.39;100.00
57644;BME280;43474;46.510;6.686;2023-04-01T01:59:15;95931.69;;;6.48;100.00
57644;BME280;43474;46.510;6.686;2023-04-01T02:01:49;95916.28;;;6.52;100.00
57644;BME280;43474;46.510;6.686;2023-04-01T02:04:17;95913.41;;;6.54;100.00
57644;BME280;43474;46.510;6.686;2023-04-01T02:06:50;95905.50;;;6.54;100.00
57644;BME280;43474;46.510;6.686;2023-04-01T02:09:19;95924.22;;;6.64;100.00
57644;BME280;43474;46.510;6.686;2023-04-01T02:11:51;95915.06;;;6.66;100.00
57644;BME280;43474;46.510;6.686;2023-04-01T02:14:25;95896.34;;;6.56;100.00
57644;BME280;43474;46.510;6.686;2023-04-01T02:17:12;95899.94;;;6.62;100.00
57644;BME280;43474;46.510;6.686;2023-04-01T02:22:14;95898.69;;;6.64;100.00
57644;BME280;43474;46.510;6.686;2023-04-01T02:24:42;95890.28;;;6.56;100.00
57644;BME280;43474;46.510;6.686;2023-04-01T02:27:09;95895.41;;;6.51;100.00
57644;BME280;43474;46.510;6.686;2023-04-01T02:29:36;95889.84;;;6.59;100.00
57644;BME280;43474;46.510;6.686;2023-04-01T02:32:02;95899.16;;;6.73;100.00
57644;BME280;43474;46.510;6.686;2023-04-01T02:34:28;95893.84;;;6.61;100.00
57644;BME280;43474;46.510;6.686;2023-04-01T02:36:55;95889.97;;;6.64;100.00
57644;BME280;43474;46.510;6.686;2023-04-01T02:39:21;95878.06;;;6.61;100.00
57644;BME280;43474;46.510;6.686;2023-04-01T02:41:47;95870.09;;;6.80;100.00
57644;BME280;43474;46.510;6.686;2023-04-01T02:44:15;95877.31;;;6.72;100.00
57644;BME280;43474;46.510;6.686;2023-04-01T02:46:41;95873.66;;;6.85;100.00
57644;BME280;43474;46.510;6.686;2023-04-01T02:49:06;95873.53;;;6.80;100.00
57644;BME280;43474;46.510;6.686;2023-04-01T02:51:33;95865.88;;;6.79;100.00
57644;BME280;43474;46.510;6.686;2023-04-01T02:53:59;95862.88;;;6.75;100.00
57644;BME280;43474;46.510;6.686;2023-04-01T02:56:24;95869.53;;;6.78;100.00
57644;BME280;43474;46.510;6.686;2023-04-01T02:58:52;95862.88;;;6.75;100.00
57644;BME280;43474;46.510;6.686;2023-04-01T03:01:18;95848.41;;;6.66;100.00
57644;BME280;43474;46.510;6.686;2023-04-01T03:03:43;95854.41;;;6.73;100.00
57644;BME280;43474;46.510;6.686;2023-04-01T03:06:11;95861.94;;;6.69;100.00
57644;BME280;43474;46.510;6.686;2023-04-01T03:08:38;95860.59;;;6.67;100.00
57644;BME280;43474;46.510;6.686;2023-04-01T03:11:03;95858.81;;;6.61;100.00
57644;BME280;43474;46.510;6.686;2023-04-01T03:13:29;95882.78;;;6.71;100.00
57644;BME280;43474;46.510;6.686;2023-04-01T03:15:54;95871.25;;;6.72;100.00
57644;BME280;43474;46.510;6.686;2023-04-01T03:18:20;95867.69;;;6.78;100.00
57644;BME280;43474;46.510;6.686;2023-04-01T03:20:46;95875.25;;;6.74;100.00
57644;BME280;43474;46.510;6.686;2023-04-01T03:23:12;95877.31;;;6.84;100.00
57644;BME280;43474;46.510;6.686;2023-04-01T03:25:37;95873.19;;;6.77;100.00
57644;BME280;43474;46.510;6.686;2023-04-01T03:28:03;95876.41;;;6.79;100.00
57644;BME280;43474;46.510;6.686;2023-04-01T03:30:29;95875.13;;;6.69;100.00
57644;BME280;43474;46.510;6.686;2023-04-01T03:32:59;95865.94;;;6.60;100.00
57644;BME280;43474;46.510;6.686;2023-04-01T03:35:27;95868.91;;;6.64;100.00
57644;BME280;43474;46.510;6.686;2023-04-01T03:37:53;95877.44;;;6.78;100.00
57644;BME280;43474;46.510;6.686;2023-04-01T03:40:20;95880.28;;;6.76;100.00
57644;BME280;43474;46.510;6.686;2023-04-01T03:42:46;95878.00;;;6.80;100.00
57644;BME280;43474;46.510;6.686;2023-04-01T03:45:11;95880.97;;;6.71;100.00
57644;BME280;43474;46.510;6.686;2023-04-01T03:47:38;95868.34;;;6.62;100.00
57644;BME280;43474;46.510;6.686;2023-04-01T03:50:05;95885.50;;;6.64;100.00
57644;BME280;43474;46.510;6.686;2023-04-01T03:52:31;95865.78;;;6.43;100.00
57644;BME280;43474;46.510;6.686;2023-04-01T03:54:56;95891.91;;;6.57;100.00
57644;BME280;43474;46.510;6.686;2023-04-01T03:57:22;95896.00;;;6.53;100.00
57644;BME280;43474;46.510;6.686;2023-04-01T03:59:48;95877.53;;;6.41;100.00
57644;BME280;43474;46.510;6.686;2023-04-01T04:02:13;95885.66;;;6.39;100.00
57644;BME280;43474;46.510;6.686;2023-04-01T04:04:39;95880.81;;;6.36;100.00
57644;BME280;43474;46.510;6.686;2023-04-01T04:07:05;95837.50;;;6.09;100.00
57644;BME280;43474;46.510;6.686;2023-04-01T04:09:31;95872.47;;;6.28;100.00
57644;BME280;43474;46.510;6.686;2023-04-01T04:11:57;95854.56;;;6.18;100.00
57644;BME280;43474;46.510;6.686;2023-04-01T04:14:23;95849.88;;;6.20;100.00
57644;BME280;43474;46.510;6.686;2023-04-01T04:16:49;95856.75;;;6.21;100.00
57644;BME280;43474;46.510;6.686;2023-04-01T04:19:14;95871.31;;;6.24;100.00
57644;BME280;43474;46.510;6.686;2023-04-01T04:21:41;95865.22;;;6.23;100.00
57644;BME280;43474;46.510;6.686;2023-04-01T04:24:07;95858.25;;;6.17;100.00
57644;BME280;43474;46.510;6.686;2023-04-01T04:26:33;95851.22;;;6.11;100.00
57644;BME280;43474;46.510;6.686;2023-04-01T04:28:59;95861.16;;;6.09;100.00
57644;BME280;43474;46.510;6.686;2023-04-01T04:31:25;95861.16;;;6.09;100.00
57644;BME280;43474;46.510;6.686;2023-04-01T04:33:51;95862.91;;;6.15;100.00
57644;BME280;43474;46.510;6.686;2023-04-01T04:36:18;95856.47;;;6.11;100.00
57644;BME280;43474;46.510;6.686;2023-04-01T04:38:44;95859.03;;;6.17;100.00
57644;BME280;43474;46.510;6.686;2023-04-01T04:41:14;95877.31;;;6.12;100.00
57644;BME280;43474;46.510;6.686;2023-04-01T04:43:41;95876.06;;;6.15;100.00
57644;BME280;43474;46.510;6.686;2023-04-01T04:46:08;95887.03;;;6.12;100.00
57644;BME280;43474;46.510;6.686;2023-04-01T04:48:34;95888.41;;;6.14;100.00
57644;BME280;43474;46.510;6.686;2023-04-01T04:51:01;95874.31;;;6.09;100.00
57644;BME280;43474;46.510;6.686;2023-04-01T04:53:27;95888.69;;;6.06;100.00
57644;BME280;43474;46.510;6.686;2023-04-01T04:55:53;95890.53;;;6.06;100.00
57644;BME280;43474;46.510;6.686;2023-04-01T04:58:18;95872.22;;;5.99;100.00
57644;BME280;43474;46.510;6.686;2023-04-01T05:00:45;95862.50;;;6.00;100.00
57644;BME280;43474;46.510;6.686;2023-04-01T05:03:11;95875.25;;;5.96;100.00
57644;BME280;43474;46.510;6.686;2023-04-01T05:05:37;95867.19;;;5.98;100.00
57644;BME280;43474;46.510;6.686;2023-04-01T05:08:02;95884.94;;;6.02;100.00
57644;BME280;43474;46.510;6.686;2023-04-01T05:10:28;95875.25;;;5.96;100.00
57644;BME280;43474;46.510;6.686;2023-04-01T05:12:53;95879.28;;;5.99;100.00
57644;BME280;43474;46.510;6.686;2023-04-01T05:15:19;95874.03;;;5.99;100.00
57644;BME280;43474;46.510;6.686;2023-04-01T05:17:45;95888.56;;;6.01;100.00
57644;BME280;43474;46.510;6.686;2023-04-01T05:20:12;95872.28;;;5.92;100.00
57644;BME280;43474;46.510;6.686;2023-04-01T05:22:38;95882.22;;;6.09;100.00
57644;BME280;43474;46.510;6.686;2023-04-01T05:25:04;95883.00;;;6.09;100.00
57644;BME280;43474;46.510;6.686;2023-04-01T05:27:30;95899.22;;;6.06;100.00
57644;BME280;43474;46.510;6.686;2023-04-01T05:29:56;95891.56;;;6.05;100.00
57644;BME280;43474;46.510;6.686;2023-04-01T05:32:22;95883.09;;;6.03;100.00
57644;BME280;43474;46.510;6.686;2023-04-01T05:34:53;95902.00;;;6.11;100.00
57644;BME280;43474;46.510;6.686;2023-04-01T05:37:19;95875.72;;;5.93;100.00
57644;BME280;43474;46.510;6.686;2023-04-01T05:39:45;95891.00;;;6.03;100.00
57644;BME280;43474;46.510;6.686;2023-04-01T05:42:10;95884.94;;;6.02;100.00
57644;BME280;43474;46.510;6.686;2023-04-01T05:44:36;95892.81;;;6.02;100.00
57644;BME280;43474;46.510;6.686;2023-04-01T05:47:03;95903.53;;;6.01;100.00
57644;BME280;43474;46.510;6.686;2023-04-01T05:49:30;95903.09;;;6.04;100.00
57644;BME280;43474;46.510;6.686;2023-04-01T05:51:56;95874.53;;;5.89;100.00
57644;BME280;43474;46.510;6.686;2023-04-01T05:54:22;95869.13;;;5.84;100.00
57644;BME280;43474;46.510;6.686;2023-04-01T05:56:48;95888.91;;;5.86;100.00
57644;BME280;43474;46.510;6.686;2023-04-01T05:59:14;95882.84;;;5.86;100.00
57644;BME280;43474;46.510;6.686;2023-04-01T06:01:39;95882.97;;;5.91;100.00
57644;BME280;43474;46.510;6.686;2023-04-01T06:04:05;95899.41;;;5.93;100.00
57644;BME280;43474;46.510;6.686;2023-04-01T06:06:31;95905.47;;;5.93;100.00
57644;BME280;43474;46.510;6.686;2023-04-01T06:09:07;95886.66;;;5.90;100.00
57644;BME280;43474;46.510;6.686;2023-04-01T06:14:47;95888.78;;;6.00;100.00
57644;BME280;43474;46.510;6.686;2023-04-01T06:20:11;95883.44;;;6.06;100.00
57644;BME280;43474;46.510;6.686;2023-04-01T06:31:20;95892.47;;;6.29;100.00
57644;BME280;43474;46.510;6.686;2023-04-01T06:34:21;95860.50;;;6.13;100.00
57644;BME280;43474;46.510;6.686;2023-04-01T06:37:25;95885.75;;;6.33;100.00
57644;BME280;43474;46.510;6.686;2023-04-01T06:40:06;95896.16;;;6.28;100.00
57644;BME280;43474;46.510;6.686;2023-04-01T06:42:53;95891.03;;;6.33;100.00
57644;BME280;43474;46.510;6.686;2023-04-01T06:45:55;95897.72;;;6.47;100.00
57644;BME280;43474;46.510;6.686;2023-04-01T06:48:47;95905.53;;;6.35;100.00
57644;BME280;43474;46.510;6.686;2023-04-01T06:51:51;95916.53;;;6.32;100.00
57644;BME280;43474;46.510;6.686;2023-04-01T06:54:26;95919.88;;;6.21;100.00
57644;BME280;43474;46.510;6.686;2023-04-01T06:57:02;95934.34;;;6.30;100.00
57644;BME280;43474;46.510;6.686;2023-04-01T06:59:33;95936.97;;;6.30;100.00
57644;BME280;43474;46.510;6.686;2023-04-01T07:02:34;95915.94;;;6.30;100.00
57644;BME280;43474;46.510;6.686;2023-04-01T07:05:05;95923.69;;;6.25;100.00
57644;BME280;43474;46.510;6.686;2023-04-01T07:07:38;95923.13;;;6.23;100.00
57644;BME280;43474;46.510;6.686;2023-04-01T07:10:13;95925.66;;;6.30;100.00
57644;BME280;43474;46.510;6.686;2023-04-01T07:12:51;95936.66;;;6.27;100.00
57644;BME280;43474;46.510;6.686;2023-04-01T07:15:40;95947.75;;;6.29;100.00
57644;BME280;43474;46.510;6.686;2023-04-01T07:18:25;95938.81;;;6.30;100.00
57644;BME280;43474;46.510;6.686;2023-04-01T07:20:55;95927.25;;;6.31;100.00
57644;BME280;43474;46.510;6.686;2023-04-01T07:23:26;95944.22;;;6.35;100.00
57644;BME280;43474;46.510;6.686;2023-04-01T07:25:58;95942.75;;;6.39;100.00
57644;BME280;43474;46.510;6.686;2023-04-01T07:28:30;95941.59;;;6.35;100.00
57644;BME280;43474;46.510;6.686;2023-04-01T07:31:07;95945.03;;;6.35;100.00
57644;BME280;43474;46.510;6.686;2023-04-01T07:39:41;95964.47;;;6.53;100.00
57644;BME280;43474;46.510;6.686;2023-04-01T07:47:35;95971.06;;;6.73;100.00
57644;BME280;43474;46.510;6.686;2023-04-01T07:50:21;95958.88;;;6.91;100.00
57644;BME280;43474;46.510;6.686;2023-04-01T08:01:32;95960.50;;;7.57;100.00
57644;BME280;43474;46.510;6.686;2023-04-01T08:07:14;95962.97;;;8.22;100.00
57644;BME280;43474;46.510;6.686;2023-04-01T08:14:58;95960.09;;;8.24;100.00
57644;BME280;43474;46.510;6.686;2023-04-01T08:17:38;95960.13;;;8.12;100.00
57644;BME280;43474;46.510;6.686;2023-04-01T08:23:22;95969.19;;;8.04;100.00
57644;BME280;43474;46.510;6.686;2023-04-01T08:26:28;95948.53;;;8.13;100.00
57644;BME280;43474;46.510;6.686;2023-04-01T08:29:00;95971.94;;;8.10;100.00
57644;BME280;43474;46.510;6.686;2023-04-01T08:31:33;95971.25;;;8.14;100.00
57644;BME280;43474;46.510;6.686;2023-04-01T08:34:04;95959.09;;;8.13;100.00
57644;BME280;43474;46.510;6.686;2023-04-01T08:36:36;95964.13;;;8.26;100.00
57644;BME280;43474;46.510;6.686;2023-04-01T08:39:08;95949.88;;;8.39;100.00
57644;BME280;43474;46.510;6.686;2023-04-01T08:41:59;95964.16;;;8.55;100.00
57644;BME280;43474;46.510;6.686;2023-04-01T09:10:15;95940.38;;;8.67;100.00
57644;BME280;43474;46.510;6.686;2023-04-01T09:13:03;95961.06;;;8.58;100.00
57644;BME280;43474;46.510;6.686;2023-04-01T09:18:53;95968.16;;;8.41;100.00
57644;BME280;43474;46.510;6.686;2023-04-01T09:29:28;95957.81;;;9.25;100.00
57644;BME280;43474;46.510;6.686;2023-04-01T09:32:30;95957.38;;;9.33;100.00
57644;BME280;43474;46.510;6.686;2023-04-01T09:37:53;95955.16;;;9.25;100.00
57644;BME280;43474;46.510;6.686;2023-04-01T09:43:21;95958.34;;;9.44;100.00
57644;BME280;43474;46.510;6.686;2023-04-01T09:51:48;95965.41;;;9.21;100.00
57644;BME280;43474;46.510;6.686;2023-04-01T09:54:41;95958.97;;;9.00;100.00
57644;BME280;43474;46.510;6.686;2023-04-01T10:03:13;95944.97;;;8.71;100.00
57644;BME280;43474;46.510;6.686;2023-04-01T10:05:58;95962.78;;;8.93;100.00
57644;BME280;43474;46.510;6.686;2023-04-01T10:14:27;95956.63;;;8.35;100.00
57644;BME280;43474;46.510;6.686;2023-04-01T10:17:36;95949.75;;;8.34;100.00
57644;BME280;43474;46.510;6.686;2023-04-01T10:23:38;95939.94;;;8.87;100.00
57644;BME280;43474;46.510;6.686;2023-04-01T10:26:22;95930.34;;;8.80;100.00
57644;BME280;43474;46.510;6.686;2023-04-01T10:38:10;95909.50;;;9.85;100.00
57644;BME280;43474;46.510;6.686;2023-04-01T10:41:04;95910.22;;;10.41;100.00
57644;BME280;43474;46.510;6.686;2023-04-01T11:01:32;95896.66;;;10.38;100.00
57644;BME280;43474;46.510;6.686;2023-04-01T11:15:54;95916.97;;;10.10;100.00
57644;BME280;43474;46.510;6.686;2023-04-01T11:26:40;95952.91;;;7.84;100.00
57644;BME280;43474;46.510;6.686;2023-04-01T11:37:39;95925.56;;;8.14;100.00
57644;BME280;43474;46.510;6.686;2023-04-01T11:40:22;95913.63;;;8.92;100.00
57644;BME280;43474;46.510;6.686;2023-04-01T11:48:30;95896.50;;;11.68;100.00
57644;BME280;43474;46.510;6.686;2023-04-01T11:51:40;95888.41;;;11.84;100.00
57644;BME280;43474;46.510;6.686;2023-04-01T11:54:28;95894.00;;;11.51;100.00
57644;BME280;43474;46.510;6.686;2023-04-01T12:03:07;95870.41;;;13.66;100.00
57644;BME280;43474;46.510;6.686;2023-04-01T12:05:53;95855.78;;;12.87;100.00
57644;BME280;43474;46.510;6.686;2023-04-01T12:11:15;95859.28;;;12.05;100.00
57644;BME280;43474;46.510;6.686;2023-04-01T12:13:53;95859.22;;;11.89;100.00
57644;BME280;43474;46.510;6.686;2023-04-01T12:16:26;95853.84;;;12.42;100.00
57644;BME280;43474;46.510;6.686;2023-04-01T12:18:59;95862.38;;;12.44;100.00
57644;BME280;43474;46.510;6.686;2023-04-01T12:21:36;95860.44;;;12.24;100.00
57644;BME280;43474;46.510;6.686;2023-04-01T12:24:25;95850.44;;;12.62;100.00
57644;BME280;43474;46.510;6.686;2023-04-01T12:27:31;95857.81;;;12.39;100.00
57644;BME280;43474;46.510;6.686;2023-04-01T12:30:23;95858.81;;;12.18;100.00
57644;BME280;43474;46.510;6.686;2023-04-01T12:38:59;95827.09;;;13.30;100.00
57644;BME280;43474;46.510;6.686;2023-04-01T12:45:01;95830.84;;;14.19;91.28
57644;BME280;43474;46.510;6.686;2023-04-01T12:47:52;95825.91;;;13.82;93.23
57644;BME280;43474;46.510;6.686;2023-04-01T12:50:44;95820.16;;;13.09;89.77
57644;BME280;43474;46.510;6.686;2023-04-01T12:56:19;95810.19;;;12.18;96.68
57644;BME280;43474;46.510;6.686;2023-04-01T13:02:22;95810.72;;;11.62;100.00
57644;BME280;43474;46.510;6.686;2023-04-01T13:08:08;95809.16;;;11.66;100.00
57644;BME280;43474;46.510;6.686;2023-04-01T13:18:32;95788.19;;;13.50;93.16
57644;BME280;43474;46.510;6.686;2023-04-01T13:21:19;95794.34;;;13.35;93.03
57644;BME280;43474;46.510;6.686;2023-04-01T13:29:27;95779.72;;;12.71;93.34
57644;BME280;43474;46.510;6.686;2023-04-01T13:32:11;95765.38;;;12.87;100.00
57644;BME280;43474;46.510;6.686;2023-04-01T13:38:00;95766.19;;;12.93;91.65
57644;BME280;43474;46.510;6.686;2023-04-01T13:40:41;95751.81;;;12.94;94.73
57644;BME280;43474;46.510;6.686;2023-04-01T13:43:38;95740.13;;;12.90;100.00
57644;BME280;43474;46.510;6.686;2023-04-01T13:51:52;95748.78;;;14.11;91.92
57644;BME280;43474;46.510;6.686;2023-04-01T14:00:30;95742.47;;;13.17;90.83
57644;BME280;43474;46.510;6.686;2023-04-01T14:06:16;95749.41;;;12.41;92.56
57644;BME280;43474;46.510;6.686;2023-04-01T14:09:00;95736.88;;;12.16;93.91
57644;BME280;43474;46.510;6.686;2023-04-01T14:23:08;95731.44;;;11.71;95.16
57644;BME280;43474;46.510;6.686;2023-04-01T14:28:36;95735.75;;;11.29;91.86
57644;BME280;43474;46.510;6.686;2023-04-01T14:31:18;95737.75;;;11.54;96.13
57644;BME280;43474;46.510;6.686;2023-04-01T14:34:09;95721.56;;;11.61;97.83
57644;BME280;43474;46.510;6.686;2023-04-01T14:36:47;95737.19;;;11.57;96.94
57644;BME280;43474;46.510;6.686;2023-04-01T14:39:57;95734.47;;;11.42;100.00
57644;BME280;43474;46.510;6.686;2023-04-01T14:54:30;95733.19;;;11.02;100.00
57644;BME280;43474;46.510;6.686;2023-04-01T14:57:12;95740.41;;;10.70;100.00
57644;BME280;43474;46.510;6.686;2023-04-01T15:00:13;95740.56;;;10.26;100.00
57644;BME280;43474;46.510;6.686;2023-04-01T15:08:23;95769.44;;;9.56;100.00
57644;BME280;43474;46.510;6.686;2023-04-01T15:11:06;95772.50;;;9.48;100.00
57644;BME280;43474;46.510;6.686;2023-04-01T15:16:41;95765.84;;;9.07;100.00
57644;BME280;43474;46.510;6.686;2023-04-01T15:35:38;95743.06;;;9.89;100.00
57644;BME280;43474;46.510;6.686;2023-04-01T15:38:31;95741.31;;;9.99;100.00
57644;BME280;43474;46.510;6.686;2023-04-01T15:41:07;95733.28;;;10.16;100.00
57644;BME280;43474;46.510;6.686;2023-04-01T15:43:44;95725.31;;;10.11;100.00
57644;BME280;43474;46.510;6.686;2023-04-01T15:49:06;95729.19;;;10.25;100.00
57644;BME280;43474;46.510;6.686;2023-04-01T15:57:21;95724.84;;;10.19;100.00
57644;BME280;43474;46.510;6.686;2023-04-01T16:14:02;95733.63;;;9.27;100.00
57644;BME280;43474;46.510;6.686;2023-04-01T16:21:41;95742.53;;;9.21;100.00
57644;BME280;43474;46.510;6.686;2023-04-01T16:24:34;95735.88;;;9.18;100.00
57644;BME280;43474;46.510;6.686;2023-04-01T16:27:12;95741.16;;;9.18;100.00
57644;BME280;43474;46.510;6.686;2023-04-01T16:29:48;95716.69;;;9.06;100.00
57644;BME280;43474;46.510;6.686;2023-04-01T16:37:50;95733.28;;;9.23;100.00
57644;BME280;43474;46.510;6.686;2023-04-01T16:43:28;95746.13;;;9.15;100.00
57644;BME280;43474;46.510;6.686;2023-04-01T16:46:13;95750.63;;;9.14;100.00
57644;BME280;43474;46.510;6.686;2023-04-01T16:51:52;95735.53;;;8.93;100.00
57644;BME280;43474;46.510;6.686;2023-04-01T16:59:58;95739.88;;;8.82;100.00
57644;BME280;43474;46.510;6.686;2023-04-01T17:02:47;95731.00;;;8.71;100.00
57644;BME280;43474;46.510;6.686;2023-04-01T17:05:15;95748.75;;;8.76;100.00
57644;BME280;43474;46.510;6.686;2023-04-01T17:08:10;95743.78;;;8.63;100.00
57644;BME280;43474;46.510;6.686;2023-04-01T17:13:40;95759.25;;;8.71;100.00
57644;BME280;43474;46.510;6.686;2023-04-01T17:16:28;95756.44;;;8.61;100.00
57644;BME280;43474;46.510;6.686;2023-04-01T17:19:08;95765.25;;;8.66;100.00
57644;BME280;43474;46.510;6.686;2023-04-01T17:22:11;95768.03;;;8.60;100.00
57644;BME280;43474;46.510;6.686;2023-04-01T17:30:10;95776.41;;;8.40;100.00
57644;BME280;43474;46.510;6.686;2023-04-01T17:32:49;95778.31;;;8.27;100.00
57644;BME280;43474;46.510;6.686;2023-04-01T17:49:23;95798.88;;;7.97;100.00
57644;BME280;43474;46.510;6.686;2023-04-01T17:57:27;95813.59;;;7.81;100.00
57644;BME280;43474;46.510;6.686;2023-04-01T18:00:17;95812.16;;;7.62;100.00
57644;BME280;43474;46.510;6.686;2023-04-01T18:03:12;95834.25;;;7.61;100.00
57644;BME280;43474;46.510;6.686;2023-04-01T18:08:26;95846.69;;;7.37;100.00
57644;BME280;43474;46.510;6.686;2023-04-01T18:11:26;95843.69;;;7.33;100.00
57644;BME280;43474;46.510;6.686;2023-04-01T18:14:20;95846.22;;;7.28;100.00
57644;BME280;43474;46.510;6.686;2023-04-01T18:22:43;95847.13;;;7.22;100.00
57644;BME280;43474;46.510;6.686;2023-04-01T18:25:19;95847.81;;;7.17;100.00
57644;BME280;43474;46.510;6.686;2023-04-01T18:27:50;95855.38;;;7.14;100.00
57644;BME280;43474;46.510;6.686;2023-04-01T18:30:35;95863.41;;;7.19;100.00
57644;BME280;43474;46.510;6.686;2023-04-01T18:33:16;95865.78;;;7.20;100.00
57644;BME280;43474;46.510;6.686;2023-04-01T18:36:09;95870.16;;;7.15;100.00
57644;BME280;43474;46.510;6.686;2023-04-01T18:38:49;95860.75;;;7.07;100.00
57644;BME280;43474;46.510;6.686;2023-04-01T18:46:50;95876.81;;;7.17;100.00
57644;BME280;43474;46.510;6.686;2023-04-01T18:49:29;95882.28;;;7.16;100.00
57644;BME280;43474;46.510;6.686;2023-04-01T18:52:03;95869.81;;;7.11;100.00
57644;BME280;43474;46.510;6.686;2023-04-01T18:54:41;95884.69;;;7.06;100.00
57644;BME280;43474;46.510;6.686;2023-04-01T18:57:15;95890.06;;;6.87;100.00
57644;BME280;43474;46.510;6.686;2023-04-01T18:59:46;95892.50;;;6.70;100.00
57644;BME280;43474;46.510;6.686;2023-04-01T19:02:20;95892.97;;;6.67;100.00
57644;BME280;43474;46.510;6.686;2023-04-01T19:12:53;95919.63;;;6.41;100.00
57644;BME280;43474;46.510;6.686;2023-04-01T19:15:30;95919.88;;;6.39;100.00
57644;BME280;43474;46.510;6.686;2023-04-01T19:23:30;95928.16;;;6.25;100.00
57644;BME280;43474;46.510;6.686;2023-04-01T19:26:04;95914.09;;;6.31;100.00
57644;BME280;43474;46.510;6.686;2023-04-01T19:28:55;95919.69;;;6.22;100.00
57644;BME280;43474;46.510;6.686;2023-04-01T19:31:36;95926.78;;;6.22;100.00
57644;BME280;43474;46.510;6.686;2023-04-01T19:36:54;95931.09;;;5.98;100.00
57644;BME280;43474;46.510;6.686;2023-04-01T19:42:09;95939.41;;;6.13;100.00
57644;BME280;43474;46.510;6.686;2023-04-01T19:47:54;95933.66;;;6.05;100.00
57644;BME280;43474;46.510;6.686;2023-04-01T19:50:26;95950.44;;;6.04;100.00
57644;BME280;43474;46.510;6.686;2023-04-01T19:52:56;95938.22;;;5.91;100.00
57644;BME280;43474;46.510;6.686;2023-04-01T19:55:38;95956.03;;;5.89;100.00
57644;BME280;43474;46.510;6.686;2023-04-01T19:58:23;95951.06;;;5.81;100.00
57644;BME280;43474;46.510;6.686;2023-04-01T20:01:03;95940.09;;;5.65;100.00
57644;BME280;43474;46.510;6.686;2023-04-01T20:03:39;95954.41;;;5.69;100.00
57644;BME280;43474;46.510;6.686;2023-04-01T20:09:03;95957.72;;;5.83;100.00
57644;BME280;43474;46.510;6.686;2023-04-01T20:11:46;95948.06;;;5.77;100.00
57644;BME280;43474;46.510;6.686;2023-04-01T20:14:28;95944.63;;;5.77;100.00
57644;BME280;43474;46.510;6.686;2023-04-01T20:17:20;95945.44;;;5.77;100.00
57644;BME280;43474;46.510;6.686;2023-04-01T20:19:55;95969.75;;;5.98;100.00